sensor_id;sensor_type;location;lat;lon;timestamp;temperature;humidity
22114;DHT22;11223;49.968;9.062;2023-06-22T00:01:00;20.50;99.90
22114;DHT22;11223;49.968;9.062;2023-06-22T00:03:26;20.60;99.90
22114;DHT22;11223;49.968;9.062;2023-06-22T00:05:51;20.70;99.90
22114;DHT22;11223;49.968;9.062;2023-06-22T00:08:17;20.80;99.90
22114;DHT22;11223;49.968;9.062;2023-06-22T00:10:43;21.00;99.90
22114;DHT22;11223;49.968;9.062;2023-06-22T00:13:09;21.10;99.90
22114;DHT22;11223;49.968;9.062;2023-06-22T00:15:35;21.20;99.90
22114;DHT22;11223;49.968;9.062;2023-06-22T00:18:01;21.40;99.90
22114;DHT22;11223;49.968;9.062;2023-06-22T00:20:27;21.40;99.90
22114;DHT22;11223;49.968;9.062;2023-06-22T00:22:56;21.50;99.90
22114;DHT22;11223;49.968;9.062;2023-06-22T00:25:22;21.60;99.90
22114;DHT22;11223;49.968;9.062;2023-06-22T00:27:48;21.60;99.90
22114;DHT22;11223;49.968;9.062;2023-06-22T00:30:15;21.60;99.90
22114;DHT22;11223;49.968;9.062;2023-06-22T00:32:40;21.50;99.90
22114;DHT22;11223;49.968;9.062;2023-06-22T00:35:06;21.40;99.90
22114;DHT22;11223;49.968;9.062;2023-06-22T00:37:32;21.30;99.90
22114;DHT22;11223;49.968;9.062;2023-06-22T00:39:57;21.20;99.90
22114;DHT22;11223;49.968;9.062;2023-06-22T00:42:23;21.10;99.90
22114;DHT22;11223;49.968;9.062;2023-06-22T00:44:48;21.00;99.90
22114;DHT22;11223;49.968;9.062;2023-06-22T00:47:14;21.00;99.90
22114;DHT22;11223;49.968;9.062;2023-06-22T00:49:41;20.90;99.90
22114;DHT22;11223;49.968;9.062;2023-06-22T00:52:06;20.90;99.90
22114;DHT22;11223;49.968;9.062;2023-06-22T00:54:42;20.80;99.90
22114;DHT22;11223;49.968;9.062;2023-06-22T00:57:13;20.80;99.90
22114;DHT22;11223;49.968;9.062;2023-06-22T00:59:44;20.80;99.90
22114;DHT22;11223;49.968;9.062;2023-06-22T01:02:10;20.70;99.90
22114;DHT22;11223;49.968;9.062;2023-06-22T01:04:37;20.70;99.90
22114;DHT22;11223;49.968;9.062;2023-06-22T01:09:31;20.70;99.90
22114;DHT22;11223;49.968;9.062;2023-06-22T01:12:00;20.70;99.90
22114;DHT22;11223;49.968;9.062;2023-06-22T01:17:02;20.60;99.90
22114;DHT22;11223;49.968;9.062;2023-06-22T01:21:53;20.60;99.90
22114;DHT22;11223;49.968;9.062;2023-06-22T01:24:28;20.70;99.90
22114;DHT22;11223;49.968;9.062;2023-06-22T01:27:09;20.60;99.90
22114;DHT22;11223;49.968;9.062;2023-06-22T01:29:39;20.60;99.90
22114;DHT22;11223;49.968;9.062;2023-06-22T01:32:06;20.60;99.90
22114;DHT22;11223;49.968;9.062;2023-06-22T01:34:32;20.60;99.90
22114;DHT22;11223;49.968;9.062;2023-06-22T01:36:58;20.60;99.90
22114;DHT22;11223;49.968;9.062;2023-06-22T01:39:24;20.50;99.90
22114;DHT22;11223;49.968;9.062;2023-06-22T01:41:50;20.50;99.90
22114;DHT22;11223;49.968;9.062;2023-06-22T01:44:16;20.40;99.90
22114;DHT22;11223;49.968;9.062;2023-06-22T01:46:42;20.40;99.90
22114;DHT22;11223;49.968;9.062;2023-06-22T01:49:07;20.40;99.90
22114;DHT22;11223;49.968;9.062;2023-06-22T01:51:33;20.40;99.90
22114;DHT22;11223;49.968;9.062;2023-06-22T01:53:59;20.50;99.90
22114;DHT22;11223;49.968;9.062;2023-06-22T01:56:24;20.50;99.90
22114;DHT22;11223;49.968;9.062;2023-06-22T01:58:55;20.60;99.90
22114;DHT22;11223;49.968;9.062;2023-06-22T02:01:27;20.70;99.90
22114;DHT22;11223;49.968;9.062;2023-06-22T02:03:59;20.70;99.90
22114;DHT22;11223;49.968;9.062;2023-06-22T02:06:31;20.80;99.90
22114;DHT22;11223;49.968;9.062;2023-06-22T02:09:00;20.80;99.90
22114;DHT22;11223;49.968;9.062;2023-06-22T02:11:27;20.90;99.90
22114;DHT22;11223;49.968;9.062;2023-06-22T02:13:54;20.90;99.90
22114;DHT22;11223;49.968;9.062;2023-06-22T02:16:20;20.90;99.90
22114;DHT22;11223;49.968;9.062;2023-06-22T02:18:50;20.90;99.90
22114;DHT22;11223;49.968;9.062;2023-06-22T02:21:19;21.00;99.90
22114;DHT22;11223;49.968;9.062;2023-06-22T02:23:44;21.00;99.90
22114;DHT22;11223;49.968;9.062;2023-06-22T02:26:10;21.10;99.90
22114;DHT22;11223;49.968;9.062;2023-06-22T02:28:36;21.10;99.90
22114;DHT22;11223;49.968;9.062;2023-06-22T02:31:01;21.10;99.90
22114;DHT22;11223;49.968;9.062;2023-06-22T02:33:27;21.00;99.90
22114;DHT22;11223;49.968;9.062;2023-06-22T02:35:52;21.00;99.90
22114;DHT22;11223;49.968;9.062;2023-06-22T02:38:18;20.90;99.90
22114;DHT22;11223;49.968;9.062;2023-06-22T02:40:44;20.90;99.90
22114;DHT22;11223;49.968;9.062;2023-06-22T02:43:10;20.90;99.90
22114;DHT22;11223;49.968;9.062;2023-06-22T02:45:35;20.80;99.90
22114;DHT22;11223;49.968;9.062;2023-06-22T02:48:01;20.70;99.90
22114;DHT22;11223;49.968;9.062;2023-06-22T02:50:26;20.70;99.90
22114;DHT22;11223;49.968;9.062;2023-06-22T02:52:52;20.60;99.90
22114;DHT22;11223;49.968;9.062;2023-06-22T02:55:17;20.60;99.90
22114;DHT22;11223;49.968;9.062;2023-06-22T02:57:43;20.50;99.90
22114;DHT22;11223;49.968;9.062;2023-06-22T03:00:10;20.50;99.90
22114;DHT22;11223;49.968;9.062;2023-06-22T03:02:45;20.40;99.90
22114;DHT22;11223;49.968;9.062;2023-06-22T03:05:11;20.30;99.90
22114;DHT22;11223;49.968;9.062;2023-06-22T03:07:42;20.20;99.90
22114;DHT22;11223;49.968;9.062;2023-06-22T03:10:08;20.20;99.90
22114;DHT22;11223;49.968;9.062;2023-06-22T03:12:34;20.10;99.90
22114;DHT22;11223;49.968;9.062;2023-06-22T03:15:00;20.10;99.90
22114;DHT22;11223;49.968;9.062;2023-06-22T03:17:25;20.00;99.90
22114;DHT22;11223;49.968;9.062;2023-06-22T03:19:51;20.00;99.90
22114;DHT22;11223;49.968;9.062;2023-06-22T03:22:16;19.90;99.90
22114;DHT22;11223;49.968;9.062;2023-06-22T03:24:41;19.90;99.90
22114;DHT22;11223;49.968;9.062;2023-06-22T03:27:07;19.90;99.90
22114;DHT22;11223;49.968;9.062;2023-06-22T03:29:32;19.80;99.90
22114;DHT22;11223;49.968;9.062;2023-06-22T03:31:59;19.70;99.90
22114;DHT22;11223;49.968;9.062;2023-06-22T03:34:24;19.70;99.90
22114;DHT22;11223;49.968;9.062;2023-06-22T03:36:50;19.70;99.90
22114;DHT22;11223;49.968;9.062;2023-06-22T03:39:16;19.70;99.90
22114;DHT22;11223;49.968;9.062;2023-06-22T03:41:41;19.70;99.90
22114;DHT22;11223;49.968;9.062;2023-06-22T03:44:07;19.60;99.90
22114;DHT22;11223;49.968;9.062;2023-06-22T03:46:35;19.60;99.90
22114;DHT22;11223;49.968;9.062;2023-06-22T03:49:01;19.60;99.90
22114;DHT22;11223;49.968;9.062;2023-06-22T03:51:28;19.60;99.90
22114;DHT22;11223;49.968;9.062;2023-06-22T03:53:53;19.60;99.90
22114;DHT22;11223;49.968;9.062;2023-06-22T03:56:19;19.60;99.90
22114;DHT22;11223;49.968;9.062;2023-06-22T03:58:46;19.60;99.90
22114;DHT22;11223;49.968;9.062;2023-06-22T04:01:11;19.60;99.90
22114;DHT22;11223;49.968;9.062;2023-06-22T04:03:37;19.50;99.90
22114;DHT22;11223;49.968;9.062;2023-06-22T04:06:03;19.60;99.90
22114;DHT22;11223;49.968;9.062;2023-06-22T04:08:29;19.60;99.90
22114;DHT22;11223;49.968;9.062;2023-06-22T04:10:54;19.60;99.90
22114;DHT22;11223;49.968;9.062;2023-06-22T04:13:20;19.60;99.90
22114;DHT22;11223;49.968;9.062;2023-06-22T04:15:45;19.70;99.90
22114;DHT22;11223;49.968;9.062;2023-06-22T04:18:11;19.70;99.90
22114;DHT22;11223;49.968;9.062;2023-06-22T04:20:36;19.80;99.90
22114;DHT22;11223;49.968;9.062;2023-06-22T04:23:02;19.80;99.90
22114;DHT22;11223;49.968;9.062;2023-06-22T04:25:27;19.80;99.90
22114;DHT22;11223;49.968;9.062;2023-06-22T04:27:53;19.80;99.90
22114;DHT22;11223;49.968;9.062;2023-06-22T04:30:18;20.00;99.90
22114;DHT22;11223;49.968;9.062;2023-06-22T04:32:44;20.00;99.90
22114;DHT22;11223;49.968;9.062;2023-06-22T04:35:10;20.00;99.90
22114;DHT22;11223;49.968;9.062;2023-06-22T04:37:36;20.00;99.90
22114;DHT22;11223;49.968;9.062;2023-06-22T04:40:01;20.10;99.90
22114;DHT22;11223;49.968;9.062;2023-06-22T04:42:30;20.10;99.90
22114;DHT22;11223;49.968;9.062;2023-06-22T04:44:55;20.20;99.90
22114;DHT22;11223;49.968;9.062;2023-06-22T04:47:21;20.20;99.90
22114;DHT22;11223;49.968;9.062;2023-06-22T04:49:46;20.10;99.90
22114;DHT22;11223;49.968;9.062;2023-06-22T04:52:13;20.20;99.90
22114;DHT22;11223;49.968;9.062;2023-06-22T04:54:39;20.20;99.90
22114;DHT22;11223;49.968;9.062;2023-06-22T04:57:12;20.20;99.90
22114;DHT22;11223;49.968;9.062;2023-06-22T04:59:38;20.30;99.90
22114;DHT22;11223;49.968;9.062;2023-06-22T05:02:04;20.30;99.90
22114;DHT22;11223;49.968;9.062;2023-06-22T05:04:30;20.30;99.90
22114;DHT22;11223;49.968;9.062;2023-06-22T05:07:01;20.30;99.90
22114;DHT22;11223;49.968;9.062;2023-06-22T05:09:27;20.30;99.90
22114;DHT22;11223;49.968;9.062;2023-06-22T05:11:53;20.30;99.90
22114;DHT22;11223;49.968;9.062;2023-06-22T05:14:18;20.40;99.90
22114;DHT22;11223;49.968;9.062;2023-06-22T05:16:44;20.50;99.90
22114;DHT22;11223;49.968;9.062;2023-06-22T05:19:10;20.50;99.90
22114;DHT22;11223;49.968;9.062;2023-06-22T05:21:36;20.50;99.90
22114;DHT22;11223;49.968;9.062;2023-06-22T05:24:01;20.50;99.90
22114;DHT22;11223;49.968;9.062;2023-06-22T05:26:28;20.50;99.90
22114;DHT22;11223;49.968;9.062;2023-06-22T05:28:53;20.60;99.90
22114;DHT22;11223;49.968;9.062;2023-06-22T05:31:19;20.60;99.90
22114;DHT22;11223;49.968;9.062;2023-06-22T05:33:45;20.70;99.90
22114;DHT22;11223;49.968;9.062;2023-06-22T05:36:11;20.80;99.90
22114;DHT22;11223;49.968;9.062;2023-06-22T05:38:38;20.90;99.90
22114;DHT22;11223;49.968;9.062;2023-06-22T05:41:03;21.00;99.90
22114;DHT22;11223;49.968;9.062;2023-06-22T05:43:29;21.10;99.90
22114;DHT22;11223;49.968;9.062;2023-06-22T05:45:54;21.20;99.90
22114;DHT22;11223;49.968;9.062;2023-06-22T05:48:20;21.40;99.90
22114;DHT22;11223;49.968;9.062;2023-06-22T05:50:45;21.50;99.90
22114;DHT22;11223;49.968;9.062;2023-06-22T05:53:11;21.60;99.90
22114;DHT22;11223;49.968;9.062;2023-06-22T05:55:36;21.70;99.90
22114;DHT22;11223;49.968;9.062;2023-06-22T05:58:02;21.80;99.90
22114;DHT22;11223;49.968;9.062;2023-06-22T06:00:29;22.00;99.90
22114;DHT22;11223;49.968;9.062;2023-06-22T06:02:54;22.10;99.90
22114;DHT22;11223;49.968;9.062;2023-06-22T06:05:20;22.20;99.90
22114;DHT22;11223;49.968;9.062;2023-06-22T06:07:45;22.20;99.90
22114;DHT22;11223;49.968;9.062;2023-06-22T06:10:11;22.40;99.90
22114;DHT22;11223;49.968;9.062;2023-06-22T06:12:37;22.50;99.90
22114;DHT22;11223;49.968;9.062;2023-06-22T06:15:02;22.60;99.90
22114;DHT22;11223;49.968;9.062;2023-06-22T06:17:28;22.70;99.90
22114;DHT22;11223;49.968;9.062;2023-06-22T06:19:53;22.70;99.90
22114;DHT22;11223;49.968;9.062;2023-06-22T06:22:19;22.80;99.90
22114;DHT22;11223;49.968;9.062;2023-06-22T06:24:46;22.90;99.90
22114;DHT22;11223;49.968;9.062;2023-06-22T06:27:13;23.00;99.90
22114;DHT22;11223;49.968;9.062;2023-06-22T06:29:38;23.10;99.90
22114;DHT22;11223;49.968;9.062;2023-06-22T06:32:04;23.20;99.90
22114;DHT22;11223;49.968;9.062;2023-06-22T06:34:29;23.30;99.90
22114;DHT22;11223;49.968;9.062;2023-06-22T06:36:55;23.40;99.90
22114;DHT22;11223;49.968;9.062;2023-06-22T06:39:20;23.50;99.90
22114;DHT22;11223;49.968;9.062;2023-06-22T06:41:46;23.60;99.90
22114;DHT22;11223;49.968;9.062;2023-06-22T06:44:12;23.70;99.90
22114;DHT22;11223;49.968;9.062;2023-06-22T06:46:37;23.70;99.90
22114;DHT22;11223;49.968;9.062;2023-06-22T06:49:03;23.80;99.90
22114;DHT22;11223;49.968;9.062;2023-06-22T06:51:28;23.90;99.90
22114;DHT22;11223;49.968;9.062;2023-06-22T06:53:54;23.90;99.90
22114;DHT22;11223;49.968;9.062;2023-06-22T06:56:20;24.00;99.90
22114;DHT22;11223;49.968;9.062;2023-06-22T06:58:45;24.20;99.90
22114;DHT22;11223;49.968;9.062;2023-06-22T07:01:11;24.30;99.90
22114;DHT22;11223;49.968;9.062;2023-06-22T07:03:37;24.40;99.90
22114;DHT22;11223;49.968;9.062;2023-06-22T07:06:03;24.50;99.90
